createdAt,value
2023-04-13T00:00:56.365Z,99731.91
2023-04-13T00:05:59.263Z,99728.16
2023-04-13T00:11:01.887Z,99724.69
2023-04-13T00:16:06.186Z,99722.81
2023-04-13T00:21:08.797Z,99711.53
2023-04-13T00:26:11.246Z,99716.66
2023-04-13T00:31:13.987Z,99690.38
2023-04-13T00:36:16.995Z,99675.56
2023-04-13T00:41:22.099Z,99669.41
2023-04-13T00:46:27.100Z,99666.97
2023-04-13T00:51:30.580Z,99658.91
2023-04-13T00:56:34.027Z,99656.25
2023-04-13T01:01:46.250Z,99643.63
2023-04-13T01:07:09.200Z,99652.78
2023-04-13T01:12:26.772Z,99664.59
2023-04-13T01:17:33.270Z,99636.69
2023-04-13T01:22:39.499Z,99631.03
2023-04-13T01:27:51.863Z,99611.16
2023-04-13T01:32:56.496Z,99608.50
2023-04-13T01:38:02.467Z,99588.59
2023-04-13T01:43:10.321Z,99595.31
2023-04-13T01:48:31.025Z,99582.69
2023-04-13T01:53:42.862Z,99569.81
2023-04-13T01:58:52.058Z,99560.13
2023-04-13T02:03:57.341Z,99561.75
2023-04-13T02:09:09.704Z,99541.06
2023-04-13T02:14:12.188Z,99529.00
2023-04-13T02:19:16.209Z,99526.53
2023-04-13T02:24:18.703Z,99528.97
2023-04-13T02:29:21.149Z,99534.59
2023-04-13T02:34:23.725Z,99520.34
2023-04-13T02:39:26.695Z,99538.59
2023-04-13T02:44:31.227Z,99539.97
2023-04-13T02:49:34.908Z,99540.50
2023-04-13T02:54:58.486Z,99567.34
2023-04-13T03:00:10.921Z,99565.50
2023-04-13T03:05:22.219Z,99565.53
2023-04-13T03:10:25.032Z,99561.78
2023-04-13T03:15:30.913Z,99559.13
2023-04-13T03:20:35.027Z,99554.81
2023-04-13T03:25:37.755Z,99557.22
2023-04-13T03:30:41.180Z,99548.38
2023-04-13T03:35:43.642Z,99554.56
2023-04-13T03:40:55.819Z,99550.00
2023-04-13T03:46:00.043Z,99549.19
2023-04-13T03:51:02.690Z,99572.00
2023-04-13T03:56:13.605Z,99571.47
2023-04-13T04:01:16.789Z,99578.47
2023-04-13T04:06:24.771Z,99565.31
2023-04-13T04:11:35.500Z,99585.19
2023-04-13T04:16:39.521Z,99589.50
2023-04-13T04:21:53.206Z,99579.81
2023-04-13T04:26:59.278Z,99584.91
2023-04-13T04:32:03.679Z,99578.97
2023-04-13T04:37:19.687Z,99580.03
2023-04-13T04:42:27.678Z,99577.59
2023-04-13T04:47:32.594Z,99585.38
2023-04-13T04:52:45.032Z,99582.09
2023-04-13T04:57:53.647Z,99595.25
2023-04-13T05:03:01.298Z,99594.38
2023-04-13T05:08:05.564Z,99573.09
2023-04-13T05:13:14.722Z,99558.53
2023-04-13T05:18:23.465Z,99552.03
2023-04-13T05:23:26.153Z,99550.16
2023-04-13T05:28:39.118Z,99544.75
2023-04-13T05:33:42.503Z,99538.75
2023-04-13T05:38:45.281Z,99548.63
2023-04-13T05:43:50.245Z,99529.69
2023-04-13T05:48:53.088Z,99507.91
2023-04-13T05:53:59.392Z,99496.03
2023-04-13T05:59:04.512Z,99511.03
2023-04-13T06:04:09.804Z,99508.78
2023-04-13T06:09:13.549Z,99500.94
2023-04-13T06:14:19.558Z,99490.81
2023-04-13T06:19:22.200Z,99505.38
2023-04-13T06:24:24.719Z,99488.50
2023-04-13T06:29:27.964Z,99493.56
2023-04-13T06:34:40.092Z,99485.41
2023-04-13T06:39:43.906Z,99485.91
2023-04-13T06:44:47.048Z,99469.50
2023-04-13T06:49:51.681Z,99459.50
2023-04-13T06:54:54.798Z,99439.13
2023-04-13T07:00:12.796Z,99426.66
2023-04-13T07:05:25.124Z,99421.69
2023-04-13T07:10:33.677Z,99435.19
2023-04-13T07:15:39.992Z,99421.91
2023-04-13T07:20:44.720Z,99418.38
2023-04-13T07:25:49.037Z,99405.66
2023-04-13T07:30:57.197Z,99403.56
2023-04-13T07:36:00.102Z,99408.47
2023-04-13T07:41:07.757Z,99404.38
2023-04-13T07:46:12.946Z,99403.19
2023-04-13T07:51:18.356Z,99368.09
2023-04-13T07:56:23.071Z,99345.47
2023-04-13T08:01:28.717Z,99336.59
2023-04-13T08:06:35.297Z,99340.97
2023-04-13T08:11:38.183Z,99346.84
2023-04-13T08:16:43.187Z,99364.53
2023-04-13T08:21:46.840Z,99357.41
2023-04-13T08:26:49.947Z,99375.22
2023-04-13T08:31:53.309Z,99369.72
2023-04-13T08:36:57.859Z,99358.16
2023-04-13T08:42:04.817Z,99342.84
2023-04-13T08:47:11.929Z,99347.38
2023-04-13T08:52:16.825Z,99336.28
2023-04-13T08:57:23.997Z,99339.28
2023-04-13T09:02:37.101Z,99328.66
2023-04-13T09:07:47.824Z,99340.47
2023-04-13T09:12:52.024Z,99344.53
2023-04-13T09:17:55.401Z,99333.88
2023-04-13T09:22:58.395Z,99355.13
2023-04-13T09:28:01.296Z,99350.16
2023-04-13T09:33:08.872Z,99360.25
2023-04-13T09:38:15.661Z,99375.41
2023-04-13T09:43:19.748Z,99350.31
2023-04-13T09:48:23.413Z,99347.38
2023-04-13T09:53:26.035Z,99327.97
2023-04-13T09:58:30.190Z,99316.44
2023-04-13T10:03:34.995Z,99345.69
2023-04-13T10:08:39.323Z,99341.13
2023-04-13T10:13:48.650Z,99341.50
2023-04-13T10:19:06.675Z,99327.31
2023-04-13T10:24:14.255Z,99313.34
2023-04-13T10:29:30.829Z,99312.88
2023-04-13T10:34:39.285Z,99308.81
2023-04-13T10:39:41.825Z,99315.88
2023-04-13T10:44:52.051Z,99313.31
2023-04-13T10:49:54.719Z,99308.25
2023-04-13T10:54:57.946Z,99304.56
2023-04-13T11:00:00.962Z,99298.28
2023-04-13T11:05:04.504Z,99281.66
2023-04-13T11:10:07.880Z,99278.38
2023-04-13T11:15:10.913Z,99259.16
2023-04-13T11:20:13.504Z,99276.09
2023-04-13T11:25:16.666Z,99261.84
2023-04-13T11:30:22.688Z,99257.56
2023-04-13T11:35:25.493Z,99241.28
2023-04-13T11:40:28.478Z,99234.25
2023-04-13T11:45:31.354Z,99238.28
2023-04-13T11:50:34.489Z,99240.22
2023-04-13T11:55:51.933Z,99222.97
2023-04-13T12:00:59.913Z,99203.22
2023-04-13T12:06:06.050Z,99210.78
2023-04-13T12:11:39.191Z,99204.16
2023-04-13T12:21:40.161Z,99223.63
2023-04-13T12:27:17.208Z,99205.00
2023-04-13T12:32:11.982Z,99211.16
2023-04-13T12:37:14.500Z,99207.22
2023-04-13T12:42:17.286Z,99211.13
2023-04-13T12:47:19.985Z,99184.16
2023-04-13T12:52:22.716Z,99183.22
2023-04-13T12:57:25.369Z,99173.91
2023-04-13T13:02:31.294Z,99166.59
2023-04-13T13:07:33.968Z,99163.41
2023-04-13T13:12:36.566Z,99168.31
2023-04-13T13:17:42.636Z,99153.91
2023-04-13T13:22:45.157Z,99158.47
2023-04-13T13:32:53.305Z,99164.78
2023-04-13T13:37:55.815Z,99176.84
2023-04-13T13:42:58.452Z,99184.16
2023-04-13T13:48:01.207Z,99191.44
2023-04-13T13:53:14.379Z,99161.59
2023-04-13T13:58:18.000Z,99133.50
2023-04-13T14:03:21.286Z,99158.75
2023-04-13T14:08:23.996Z,99161.72
2023-04-13T14:13:26.899Z,99167.78
2023-04-13T14:18:29.875Z,99176.19
2023-04-13T14:23:32.958Z,99167.97
2023-04-13T14:28:37.052Z,99141.50
2023-04-13T14:33:39.647Z,99158.69
2023-04-13T14:38:42.576Z,99155.69
2023-04-13T14:43:45.124Z,99149.91
2023-04-13T14:48:47.667Z,99134.19
2023-04-13T14:53:50.400Z,99115.25
2023-04-13T14:58:53.389Z,99120.78
2023-04-13T15:03:56.400Z,99112.59
2023-04-13T15:09:00.757Z,99120.97
2023-04-13T15:14:04.010Z,99108.78
2023-04-13T15:19:06.541Z,99102.69
2023-04-13T15:24:11.897Z,99085.50
2023-04-13T15:29:14.474Z,99085.63
2023-04-13T15:34:17.120Z,99095.44
2023-04-13T15:39:19.823Z,99089.66
2023-04-13T15:44:22.558Z,99088.69
2023-04-13T15:49:25.209Z,99093.06
2023-04-13T15:54:27.673Z,99086.19
2023-04-13T15:59:31.188Z,99087.09
2023-04-13T16:04:33.862Z,99081.28
2023-04-13T16:09:36.676Z,99083.91
2023-04-13T16:14:42.165Z,99072.72
2023-04-13T16:19:47.326Z,99054.25
2023-04-13T16:24:49.925Z,99013.97
2023-04-13T16:29:52.574Z,99043.56
2023-04-13T16:34:55.573Z,99041.63
2023-04-13T16:39:58.135Z,99011.41
2023-04-13T16:45:03.501Z,99013.50
2023-04-13T16:50:08.541Z,99022.59
2023-04-13T16:55:15.224Z,99059.75
2023-04-13T17:00:21.221Z,99047.34
2023-04-13T17:05:28.534Z,99033.94
2023-04-13T17:10:31.020Z,99020.06
2023-04-13T17:15:33.653Z,99007.50
2023-04-13T17:20:40.085Z,99011.28
2023-04-13T17:25:45.508Z,99033.31
2023-04-13T17:30:48.087Z,99039.34
2023-04-13T17:35:56.769Z,99014.09
2023-04-13T17:40:59.289Z,99013.63
2023-04-13T17:46:04.299Z,99009.31
2023-04-13T17:51:12.795Z,98994.13
2023-04-13T17:56:18.899Z,98994.41
2023-04-13T18:01:25.911Z,98998.50
2023-04-13T18:06:34.519Z,98993.22
2023-04-13T18:11:37.131Z,98983.03
2023-04-13T18:16:39.826Z,98975.34
2023-04-13T18:21:42.457Z,98963.81
2023-04-13T18:26:45.092Z,98955.75
2023-04-13T18:31:47.827Z,98969.31
2023-04-13T18:36:50.465Z,98967.41
2023-04-13T18:41:53.046Z,98958.22
2023-04-13T18:46:58.963Z,98956.94
2023-04-13T18:52:01.650Z,98941.81
2023-04-13T18:57:04.320Z,98930.25
2023-04-13T19:02:06.834Z,98938.56
2023-04-13T19:07:09.400Z,98938.06
2023-04-13T19:12:11.978Z,98915.59
2023-04-13T19:17:14.658Z,98933.72
2023-04-13T19:22:17.096Z,98934.78
2023-04-13T19:27:19.647Z,98942.72
2023-04-13T19:32:22.468Z,98934.88
2023-04-13T19:37:24.976Z,98947.00
2023-04-13T19:42:28.863Z,98933.69
2023-04-13T19:47:31.441Z,98935.63
2023-04-13T19:52:34.480Z,98942.97
2023-04-13T19:57:42.555Z,98950.50
2023-04-13T20:02:47.332Z,98949.25
2023-04-13T20:07:50.064Z,98946.84
2023-04-13T20:12:52.728Z,98952.25
2023-04-13T20:17:55.842Z,98935.16
2023-04-13T20:22:58.289Z,98946.78
2023-04-13T20:28:00.854Z,98934.75
2023-04-13T20:33:05.594Z,98936.97
2023-04-13T20:38:10.192Z,98923.88
2023-04-13T20:43:15.746Z,98918.00
2023-04-13T20:53:41.918Z,98919.09
2023-04-13T20:58:46.317Z,98909.75
2023-04-13T21:03:49.183Z,98897.72
2023-04-13T21:08:53.048Z,98897.50
2023-04-13T21:13:55.714Z,98884.09
2023-04-13T21:18:58.336Z,98888.59
2023-04-13T21:24:01.287Z,98896.91
2023-04-13T21:29:04.495Z,98885.38
2023-04-13T21:34:08.421Z,98883.75
2023-04-13T21:39:11.687Z,98889.38
2023-04-13T21:44:28.870Z,98874.38
2023-04-13T21:49:32.831Z,98889.00
2023-04-13T21:54:38.566Z,98892.31
2023-04-13T21:59:41.364Z,98886.50
2023-04-13T22:04:43.838Z,98884.91
2023-04-13T22:09:46.195Z,98887.69
2023-04-13T22:14:48.635Z,98877.03
2023-04-13T22:19:51.188Z,98885.88
2023-04-13T22:24:53.839Z,98882.66
2023-04-13T22:29:56.306Z,98867.81
2023-04-13T22:34:58.825Z,98852.44
2023-04-13T22:40:02.648Z,98855.44
2023-04-13T22:45:05.552Z,98853.88
2023-04-13T22:50:08.296Z,98849.84
2023-04-13T22:55:10.775Z,98851.19
2023-04-13T23:00:13.995Z,98849.59
2023-04-13T23:05:16.841Z,98854.97
2023-04-13T23:10:19.561Z,98853.09
2023-04-13T23:15:22.096Z,98852.31
2023-04-13T23:20:24.778Z,98865.94
2023-04-13T23:25:27.339Z,98869.16
2023-04-13T23:30:30.068Z,98876.91
2023-04-13T23:35:32.648Z,98872.63
2023-04-13T23:40:35.252Z,98865.13
2023-04-13T23:45:38.268Z,98871.81
2023-04-13T23:50:40.804Z,98843.22
2023-04-13T23:55:43.308Z,98848.78
